createdAt,value
2019-06-08T00:00:29.279Z,14.87
2019-06-08T00:02:55.439Z,14.88
2019-06-08T00:05:23.021Z,14.88
2019-06-08T00:07:49.412Z,14.84
2019-06-08T00:10:16.926Z,14.91
2019-06-08T00:12:43.161Z,14.92
2019-06-08T00:15:09.543Z,14.76
2019-06-08T00:17:38.737Z,14.61
2019-06-08T00:20:04.829Z,14.73
2019-06-08T00:22:31.085Z,14.76
2019-06-08T00:24:57.188Z,14.55
2019-06-08T00:27:24.514Z,14.45
2019-06-08T00:29:50.848Z,14.51
2019-06-08T00:32:18.455Z,14.59
2019-06-08T00:34:44.659Z,14.50
2019-06-08T00:37:10.759Z,14.54
2019-06-08T00:39:37.012Z,14.62
2019-06-08T00:42:03.376Z,14.57
2019-06-08T00:44:29.449Z,14.57
2019-06-08T00:46:55.550Z,14.71
2019-06-08T00:49:22.723Z,14.46
2019-06-08T00:51:48.920Z,14.62
2019-06-08T00:54:15.105Z,14.85
2019-06-08T00:56:41.151Z,14.89
2019-06-08T00:59:07.238Z,14.93
2019-06-08T01:01:33.418Z,15.00
2019-06-08T01:03:59.747Z,15.08
2019-06-08T01:06:27.399Z,15.08
2019-06-08T01:08:53.686Z,15.08
2019-06-08T01:11:20.955Z,15.12
2019-06-08T01:13:47.624Z,15.07
2019-06-08T01:16:13.782Z,15.07
2019-06-08T01:18:39.961Z,15.01
2019-06-08T01:21:06.350Z,15.09
2019-06-08T01:23:32.637Z,15.09
2019-06-08T01:25:58.754Z,14.97
2019-06-08T01:28:26.042Z,15.11
2019-06-08T01:30:52.446Z,14.96
2019-06-08T01:33:18.528Z,14.96
2019-06-08T01:35:44.653Z,15.10
2019-06-08T01:38:10.764Z,15.10
2019-06-08T01:40:37.137Z,15.26
2019-06-08T01:43:03.503Z,15.09
2019-06-08T01:45:30.100Z,15.09
2019-06-08T01:48:15.912Z,15.00
2019-06-08T01:50:32.674Z,14.90
2019-06-08T01:53:00.147Z,14.91
2019-06-08T01:55:27.086Z,15.07
2019-06-08T01:57:53.324Z,14.73
2019-06-08T02:00:29.645Z,14.73
2019-06-08T02:02:47.832Z,14.54
2019-06-08T02:05:14.395Z,14.32
2019-06-08T02:07:40.659Z,14.24
2019-06-08T02:10:07.336Z,14.29
2019-06-08T02:12:33.556Z,14.18
2019-06-08T02:14:59.620Z,14.18
2019-06-08T02:17:25.806Z,14.05
2019-06-08T02:19:51.852Z,14.10
2019-06-08T02:22:18.253Z,14.24
2019-06-08T02:24:44.369Z,14.23
2019-06-08T02:27:10.465Z,14.16
2019-06-08T02:29:36.510Z,14.41
2019-06-08T02:32:02.803Z,14.44
2019-06-08T02:34:30.639Z,14.49
2019-06-08T02:36:57.014Z,14.48
2019-06-08T02:39:23.193Z,14.37
2019-06-08T02:41:49.292Z,14.22
2019-06-08T02:44:15.421Z,14.09
2019-06-08T02:46:41.730Z,14.11
2019-06-08T02:49:08.289Z,14.28
2019-06-08T02:51:36.469Z,14.31
2019-06-08T02:54:03.079Z,14.19
2019-06-08T02:56:31.968Z,14.15
2019-06-08T02:59:00.236Z,14.00
2019-06-08T03:01:31.421Z,13.83
2019-06-08T03:03:59.556Z,13.78
2019-06-08T03:06:30.371Z,13.67
2019-06-08T03:08:57.318Z,13.73
2019-06-08T03:11:24.734Z,13.58
2019-06-08T03:13:54.663Z,13.66
2019-06-08T03:16:20.709Z,13.83
2019-06-08T03:18:46.821Z,14.08
2019-06-08T03:21:13.007Z,14.16
2019-06-08T03:23:41.548Z,14.19
2019-06-08T03:26:07.522Z,14.44
2019-06-08T03:28:35.574Z,14.75
2019-06-08T03:31:01.596Z,14.65
2019-06-08T03:33:27.765Z,14.71
2019-06-08T03:35:57.782Z,15.01
2019-06-08T03:38:22.126Z,15.03
2019-06-08T03:40:48.288Z,15.10
2019-06-08T03:43:14.555Z,15.23
2019-06-08T03:45:42.804Z,15.33
2019-06-08T03:48:08.814Z,15.08
2019-06-08T03:50:35.473Z,15.29
2019-06-08T03:53:03.157Z,15.22
2019-06-08T03:55:29.205Z,15.17
2019-06-08T03:57:55.294Z,15.17
2019-06-08T04:00:21.558Z,15.04
2019-06-08T04:02:47.758Z,14.91
2019-06-08T04:05:13.963Z,15.10
2019-06-08T04:07:41.972Z,15.10
2019-06-08T04:10:09.936Z,14.92
2019-06-08T04:12:37.633Z,14.96
2019-06-08T04:15:05.048Z,14.91
2019-06-08T04:17:31.251Z,14.81
2019-06-08T04:20:10.215Z,14.87
2019-06-08T04:22:25.368Z,14.96
2019-06-08T04:24:51.441Z,15.08
2019-06-08T04:27:17.601Z,15.33
2019-06-08T04:29:44.127Z,15.34
2019-06-08T04:32:11.655Z,15.21
2019-06-08T04:34:38.719Z,15.47
2019-06-08T04:37:05.078Z,15.42
2019-06-08T04:39:31.161Z,15.45
2019-06-08T04:41:57.233Z,15.65
2019-06-08T04:44:23.684Z,15.73
2019-06-08T04:46:50.061Z,15.75
2019-06-08T04:49:16.216Z,15.85
2019-06-08T04:51:42.545Z,15.85
2019-06-08T04:54:08.725Z,15.82
2019-06-08T04:56:34.902Z,15.82
2019-06-08T04:59:01.223Z,15.75
2019-06-08T05:01:27.271Z,15.79
2019-06-08T05:03:53.895Z,15.61
2019-06-08T05:06:20.019Z,15.93
2019-06-08T05:08:47.335Z,16.08
2019-06-08T05:11:13.710Z,16.08
2019-06-08T05:13:41.146Z,16.03
2019-06-08T05:16:07.343Z,16.03
2019-06-08T05:18:33.843Z,15.99
2019-06-08T05:20:59.928Z,16.00
2019-06-08T05:23:26.134Z,16.01
2019-06-08T05:25:52.407Z,15.80
2019-06-08T05:28:18.654Z,15.84
2019-06-08T05:30:45.297Z,15.90
2019-06-08T05:33:11.372Z,16.18
2019-06-08T05:35:37.667Z,16.22
2019-06-08T05:38:04.120Z,16.42
2019-06-08T05:40:30.164Z,16.30
2019-06-08T05:42:56.738Z,15.90
2019-06-08T05:45:23.225Z,16.23
2019-06-08T05:47:50.088Z,16.16
2019-06-08T05:50:16.811Z,16.09
2019-06-08T05:52:44.144Z,16.19
2019-06-08T05:55:14.259Z,16.30
2019-06-08T05:57:40.508Z,16.28
2019-06-08T06:00:09.497Z,16.31
2019-06-08T06:02:35.972Z,16.32
2019-06-08T06:05:04.781Z,16.34
2019-06-08T06:07:30.949Z,16.32
2019-06-08T06:09:57.063Z,16.36
2019-06-08T06:12:23.375Z,16.29
2019-06-08T06:14:49.589Z,16.28
2019-06-08T06:17:15.702Z,16.31
2019-06-08T06:19:42.984Z,16.29
2019-06-08T06:22:09.214Z,16.20
2019-06-08T06:24:37.205Z,16.50
2019-06-08T06:27:11.608Z,16.71
2019-06-08T06:29:45.487Z,16.63
2019-06-08T06:32:11.750Z,16.66
2019-06-08T06:34:37.848Z,17.00
2019-06-08T06:37:04.020Z,17.05
2019-06-08T06:39:30.104Z,17.04
2019-06-08T06:41:56.654Z,16.88
2019-06-08T06:44:23.868Z,17.01
2019-06-08T06:46:50.185Z,17.10
2019-06-08T06:49:16.332Z,17.48
2019-06-08T06:51:42.465Z,17.68
2019-06-08T06:54:08.540Z,17.69
2019-06-08T06:56:34.743Z,17.66
2019-06-08T06:59:00.834Z,17.74
2019-06-08T07:01:27.082Z,18.04
2019-06-08T07:03:54.382Z,18.29
2019-06-08T07:06:20.787Z,18.53
2019-06-08T07:08:48.163Z,19.00
2019-06-08T07:11:14.861Z,19.22
2019-06-08T07:13:41.182Z,19.48
2019-06-08T07:16:17.911Z,19.63
2019-06-08T07:18:36.092Z,19.72
2019-06-08T07:21:02.385Z,20.13
2019-06-08T07:23:28.534Z,20.31
2019-06-08T07:25:54.652Z,20.18
2019-06-08T07:28:20.772Z,20.18
2019-06-08T07:30:47.806Z,20.24
2019-06-08T07:33:14.896Z,20.01
2019-06-08T07:35:40.993Z,20.11
2019-06-08T07:38:07.299Z,20.11
2019-06-08T07:40:33.494Z,20.02
2019-06-08T07:43:00.402Z,20.08
2019-06-08T07:45:26.968Z,20.13
2019-06-08T07:47:53.981Z,20.03
2019-06-08T07:50:20.256Z,19.91
2019-06-08T07:52:46.379Z,19.64
2019-06-08T07:55:12.921Z,19.86
2019-06-08T07:57:39.095Z,19.86
2019-06-08T08:00:09.442Z,19.63
2019-06-08T08:02:34.777Z,19.63
2019-06-08T08:05:01.304Z,19.64
2019-06-08T08:07:27.498Z,19.64
2019-06-08T08:09:54.872Z,19.87
2019-06-08T08:12:21.050Z,20.05
2019-06-08T08:14:48.665Z,20.13
2019-06-08T08:17:15.106Z,20.14
2019-06-08T08:19:41.202Z,20.35
2019-06-08T08:22:22.328Z,20.54
2019-06-08T08:24:38.634Z,20.58
2019-06-08T08:27:08.184Z,20.41
2019-06-08T08:29:33.546Z,20.47
2019-06-08T08:32:01.742Z,20.56
2019-06-08T08:34:28.368Z,20.65
2019-06-08T08:36:58.145Z,20.72
2019-06-08T08:39:22.862Z,20.65
2019-06-08T08:41:53.612Z,20.88
2019-06-08T08:44:17.578Z,20.80
2019-06-08T08:46:44.035Z,20.67
2019-06-08T08:49:12.959Z,20.70
2019-06-08T08:51:39.250Z,20.71
2019-06-08T08:54:08.475Z,20.81
2019-06-08T08:56:33.685Z,20.82
2019-06-08T08:59:01.662Z,21.10
2019-06-08T09:01:28.844Z,20.95
2019-06-08T09:03:57.808Z,20.87
2019-06-08T09:06:23.348Z,20.83
2019-06-08T09:08:49.474Z,20.72
2019-06-08T09:11:17.585Z,20.76
2019-06-08T09:13:43.769Z,20.89
2019-06-08T09:16:09.980Z,21.17
2019-06-08T09:18:37.502Z,21.27
2019-06-08T09:21:04.348Z,21.29
2019-06-08T09:23:30.629Z,21.14
2019-06-08T09:26:04.214Z,21.31
2019-06-08T09:28:25.092Z,21.35
2019-06-08T09:30:52.332Z,21.18
2019-06-08T09:33:18.883Z,21.41
2019-06-08T09:35:47.760Z,21.09
2019-06-08T09:38:13.775Z,21.25
2019-06-08T09:40:39.904Z,21.45
2019-06-08T09:43:12.363Z,21.65
2019-06-08T09:45:34.689Z,21.57
2019-06-08T09:48:03.964Z,21.58
2019-06-08T09:50:28.841Z,21.59
2019-06-08T09:53:13.107Z,21.61
2019-06-08T09:55:23.325Z,21.83
2019-06-08T09:57:49.654Z,21.62
2019-06-08T10:00:21.348Z,22.14
2019-06-08T10:02:44.437Z,22.11
2019-06-08T10:05:10.791Z,21.78
2019-06-08T10:07:38.921Z,21.75
2019-06-08T10:10:09.801Z,21.43
2019-06-08T10:12:37.779Z,21.17
2019-06-08T10:15:08.029Z,21.11
2019-06-08T10:17:33.533Z,20.94
2019-06-08T10:20:01.238Z,20.64
2019-06-08T10:22:29.001Z,20.48
2019-06-08T10:24:55.762Z,20.40
2019-06-08T10:27:23.366Z,20.42
2019-06-08T10:29:49.451Z,20.29
2019-06-08T10:32:17.895Z,20.34
2019-06-08T10:34:43.750Z,20.57
2019-06-08T10:37:13.462Z,20.80
2019-06-08T10:39:38.101Z,20.84
2019-06-08T10:42:06.225Z,20.91
2019-06-08T10:44:32.891Z,20.87
2019-06-08T10:47:01.674Z,21.00
2019-06-08T10:49:28.606Z,21.02
2019-06-08T10:51:55.250Z,20.93
2019-06-08T10:54:21.693Z,20.97
2019-06-08T10:56:48.543Z,21.05
2019-06-08T10:59:15.381Z,21.01
2019-06-08T11:01:41.818Z,21.22
2019-06-08T11:04:09.359Z,21.53
2019-06-08T11:06:39.863Z,21.69
2019-06-08T11:09:08.539Z,21.84
2019-06-08T11:11:32.861Z,21.76
2019-06-08T11:14:00.983Z,21.46
2019-06-08T11:16:28.716Z,21.07
2019-06-08T11:18:55.098Z,20.93
2019-06-08T11:21:21.452Z,20.95
2019-06-08T11:24:04.669Z,20.80
2019-06-08T11:26:22.636Z,20.64
2019-06-08T11:28:43.747Z,20.66
2019-06-08T11:31:15.757Z,20.53
2019-06-08T11:33:39.041Z,20.55
2019-06-08T11:36:07.995Z,20.80
2019-06-08T11:38:33.801Z,21.08
2019-06-08T11:41:00.899Z,21.15
2019-06-08T11:43:28.704Z,20.54
2019-06-08T11:45:55.017Z,21.03
2019-06-08T11:48:22.560Z,21.07
2019-06-08T11:50:49.161Z,20.97
2019-06-08T11:53:17.849Z,20.92
2019-06-08T11:55:43.545Z,21.23
2019-06-08T11:58:12.144Z,21.27
2019-06-08T12:00:55.304Z,21.28
2019-06-08T12:03:21.642Z,21.23
2019-06-08T12:05:50.926Z,21.39
2019-06-08T12:08:17.678Z,21.48
2019-06-08T12:10:44.788Z,21.52
2019-06-08T12:13:12.780Z,21.36
2019-06-08T12:15:38.948Z,21.25
2019-06-08T12:18:08.291Z,21.44
2019-06-08T12:20:33.689Z,21.17
2019-06-08T12:22:59.753Z,21.31
2019-06-08T12:25:25.923Z,21.52
2019-06-08T12:27:52.838Z,21.64
2019-06-08T12:30:25.825Z,21.57
2019-06-08T12:32:47.918Z,21.49
2019-06-08T12:35:15.469Z,21.71
2019-06-08T12:37:42.322Z,21.88
2019-06-08T12:40:11.459Z,21.64
2019-06-08T12:42:38.142Z,21.61
2019-06-08T12:45:05.497Z,21.49
2019-06-08T12:47:31.557Z,21.59
2019-06-08T12:49:58.488Z,21.85
2019-06-08T12:52:24.751Z,22.09
2019-06-08T12:55:00.230Z,22.36
2019-06-08T12:57:22.114Z,22.14
2019-06-08T12:59:48.101Z,21.95
2019-06-08T13:02:18.525Z,21.57
2019-06-08T13:04:42.169Z,21.82
2019-06-08T13:07:09.894Z,21.96
2019-06-08T13:09:38.219Z,21.86
2019-06-08T13:12:04.646Z,21.63
2019-06-08T13:14:30.737Z,21.58
2019-06-08T13:16:56.850Z,21.59
2019-06-08T13:19:22.947Z,21.63
2019-06-08T13:21:49.009Z,21.58
2019-06-08T13:24:15.325Z,21.69
2019-06-08T13:26:41.701Z,22.02
2019-06-08T13:29:09.175Z,22.27
2019-06-08T13:31:38.221Z,22.54
2019-06-08T13:34:04.051Z,22.68
2019-06-08T13:36:30.192Z,22.61
2019-06-08T13:38:56.357Z,22.52
2019-06-08T13:41:26.264Z,22.49
2019-06-08T13:43:51.668Z,22.19
2019-06-08T13:46:19.209Z,21.82
2019-06-08T13:48:48.096Z,21.65
2019-06-08T13:51:15.136Z,21.53
2019-06-08T13:53:41.999Z,21.44
2019-06-08T13:56:08.156Z,21.44
2019-06-08T13:58:34.462Z,21.62
2019-06-08T14:01:00.626Z,21.64
2019-06-08T14:03:29.818Z,21.43
2019-06-08T14:05:56.077Z,21.55
2019-06-08T14:08:22.910Z,21.74
2019-06-08T14:10:50.520Z,21.94
2019-06-08T14:13:19.805Z,21.81
2019-06-08T14:15:44.907Z,21.70
2019-06-08T14:18:12.612Z,21.50
2019-06-08T14:20:38.932Z,21.37
2019-06-08T14:23:05.107Z,21.11
2019-06-08T14:25:46.608Z,20.97
2019-06-08T14:27:59.433Z,21.21
2019-06-08T14:30:31.081Z,21.34
2019-06-08T14:32:53.808Z,21.39
2019-06-08T14:35:22.667Z,21.16
2019-06-08T14:37:48.417Z,20.89
2019-06-08T14:40:14.710Z,20.87
2019-06-08T14:42:40.978Z,20.81
2019-06-08T14:45:10.809Z,20.92
2019-06-08T14:47:37.646Z,20.99
2019-06-08T14:50:08.128Z,20.85
2019-06-08T14:52:34.594Z,20.82
2019-06-08T14:55:00.778Z,20.93
2019-06-08T14:57:28.251Z,21.00
2019-06-08T14:59:57.172Z,20.93
2019-06-08T15:02:23.533Z,20.86
2019-06-08T15:04:51.118Z,20.95
2019-06-08T15:07:20.148Z,21.06
2019-06-08T15:09:47.731Z,20.92
2019-06-08T15:12:13.565Z,20.90
2019-06-08T15:14:39.724Z,20.84
2019-06-08T15:17:08.452Z,20.89
2019-06-08T15:19:34.248Z,21.07
2019-06-08T15:22:00.612Z,21.49
2019-06-08T15:24:29.288Z,21.68
2019-06-08T15:26:55.110Z,21.39
2019-06-08T15:29:22.610Z,21.36
2019-06-08T15:31:48.980Z,21.31
2019-06-08T15:34:17.387Z,21.15
2019-06-08T15:36:43.587Z,21.30
2019-06-08T15:39:09.823Z,21.47
2019-06-08T15:41:38.064Z,21.79
2019-06-08T15:44:04.220Z,22.10
2019-06-08T15:46:32.576Z,22.24
2019-06-08T15:48:59.035Z,22.17
2019-06-08T15:51:26.371Z,22.04
2019-06-08T15:53:53.234Z,21.79
2019-06-08T15:56:19.284Z,21.81
2019-06-08T15:58:45.564Z,21.80
2019-06-08T16:01:14.658Z,21.86
2019-06-08T16:03:39.653Z,21.84
2019-06-08T16:06:05.881Z,21.89
2019-06-08T16:08:37.539Z,21.88
2019-06-08T16:11:02.029Z,21.89
2019-06-08T16:13:28.636Z,21.83
2019-06-08T16:15:54.685Z,21.77
2019-06-08T16:18:20.739Z,21.64
2019-06-08T16:20:47.041Z,21.70
2019-06-08T16:23:13.168Z,21.78
2019-06-08T16:25:39.631Z,21.65
2019-06-08T16:28:05.773Z,21.63
2019-06-08T16:30:33.069Z,21.54
2019-06-08T16:32:59.383Z,21.57
2019-06-08T16:35:28.015Z,21.61
2019-06-08T16:37:53.918Z,21.59
2019-06-08T16:40:20.270Z,21.52
2019-06-08T16:42:47.579Z,21.40
2019-06-08T16:45:13.959Z,21.07
2019-06-08T16:47:43.207Z,20.75
2019-06-08T16:50:22.953Z,20.81
2019-06-08T16:52:36.746Z,20.98
2019-06-08T16:55:04.656Z,20.96
2019-06-08T16:57:31.013Z,20.63
2019-06-08T16:59:57.291Z,20.58
2019-06-08T17:02:23.585Z,20.54
2019-06-08T17:04:50.228Z,20.70
2019-06-08T17:07:16.318Z,20.75
2019-06-08T17:09:42.975Z,20.92
2019-06-08T17:12:09.071Z,20.97
2019-06-08T17:14:36.303Z,21.05
2019-06-08T17:17:02.567Z,21.07
2019-06-08T17:19:29.868Z,21.03
2019-06-08T17:21:56.103Z,20.86
2019-06-08T17:24:22.163Z,20.67
2019-06-08T17:26:48.567Z,20.82
2019-06-08T17:29:15.758Z,20.58
2019-06-08T17:31:41.992Z,20.44
2019-06-08T17:34:08.268Z,20.42
2019-06-08T17:36:34.617Z,20.36
2019-06-08T17:39:00.755Z,20.36
2019-06-08T17:41:26.922Z,20.34
2019-06-08T17:43:53.147Z,20.23
2019-06-08T17:46:19.543Z,20.06
2019-06-08T17:48:45.613Z,20.01
2019-06-08T17:51:11.897Z,20.02
2019-06-08T17:53:39.085Z,19.96
2019-06-08T17:56:05.419Z,20.07
2019-06-08T17:58:31.478Z,19.86
2019-06-08T18:00:57.675Z,19.77
2019-06-08T18:03:24.125Z,19.88
2019-06-08T18:05:50.217Z,19.65
2019-06-08T18:08:17.511Z,19.42
2019-06-08T18:10:44.461Z,19.34
2019-06-08T18:13:11.335Z,19.17
2019-06-08T18:15:39.092Z,19.21
2019-06-08T18:18:08.168Z,19.09
2019-06-08T18:20:34.285Z,19.01
2019-06-08T18:23:00.566Z,18.91
2019-06-08T18:25:28.048Z,18.98
2019-06-08T18:28:06.603Z,18.96
2019-06-08T18:30:23.123Z,18.91
2019-06-08T18:32:49.308Z,19.00
2019-06-08T18:35:15.491Z,18.94
2019-06-08T18:37:46.186Z,18.87
2019-06-08T18:40:14.840Z,18.82
2019-06-08T18:42:42.613Z,17.83
2019-06-08T18:45:10.441Z,18.63
2019-06-08T18:47:38.987Z,18.64
2019-06-08T18:50:08.651Z,18.48
2019-06-08T18:52:35.414Z,18.39
2019-06-08T18:55:05.413Z,18.33
2019-06-08T18:57:44.142Z,18.13
2019-06-08T19:00:11.894Z,18.11
2019-06-08T19:02:43.272Z,17.96
2019-06-08T19:05:09.021Z,17.66
2019-06-08T19:07:35.132Z,17.52
2019-06-08T19:10:10.994Z,17.40
2019-06-08T19:12:39.585Z,17.38
2019-06-08T19:15:08.290Z,17.14
2019-06-08T19:17:34.697Z,16.97
2019-06-08T19:20:00.854Z,16.87
2019-06-08T19:22:29.936Z,16.62
2019-06-08T19:24:55.220Z,16.37
2019-06-08T19:27:22.067Z,16.14
2019-06-08T19:29:51.386Z,15.85
2019-06-08T19:32:17.048Z,15.69
2019-06-08T19:34:45.148Z,15.65
2019-06-08T19:37:13.728Z,15.52
2019-06-08T19:39:44.148Z,15.42
2019-06-08T19:42:09.407Z,15.34
2019-06-08T19:44:35.486Z,15.32
2019-06-08T19:47:01.889Z,15.27
2019-06-08T19:49:28.763Z,15.15
2019-06-08T19:51:55.191Z,14.88
2019-06-08T19:54:21.658Z,15.07
2019-06-08T19:56:53.127Z,15.00
2019-06-08T19:59:18.214Z,15.01
2019-06-08T20:01:44.176Z,14.90
2019-06-08T20:04:10.419Z,14.77
2019-06-08T20:06:37.636Z,14.63
2019-06-08T20:09:08.326Z,14.78
2019-06-08T20:11:37.270Z,14.61
2019-06-08T20:14:03.444Z,14.84
2019-06-08T20:16:29.634Z,14.83
2019-06-08T20:18:58.262Z,14.79
2019-06-08T20:21:24.175Z,14.73
2019-06-08T20:23:50.942Z,14.71
2019-06-08T20:26:17.599Z,14.66
2019-06-08T20:28:44.697Z,14.62
2019-06-08T20:31:10.966Z,14.53
2019-06-08T20:33:37.978Z,14.50
2019-06-08T20:36:04.576Z,14.43
2019-06-08T20:38:37.716Z,14.35
2019-06-08T20:40:59.148Z,14.29
2019-06-08T20:43:25.250Z,14.29
2019-06-08T20:45:53.145Z,14.11
2019-06-08T20:48:19.809Z,13.86
2019-06-08T20:50:47.276Z,13.73
2019-06-08T20:53:17.610Z,13.75
2019-06-08T20:55:45.135Z,13.62
2019-06-08T20:58:11.577Z,13.61
2019-06-08T21:00:41.483Z,13.50
2019-06-08T21:03:08.349Z,13.46
2019-06-08T21:05:34.536Z,13.33
2019-06-08T21:08:00.740Z,13.14
2019-06-08T21:10:28.171Z,13.03
2019-06-08T21:12:56.309Z,12.97
2019-06-08T21:15:22.793Z,12.95
2019-06-08T21:17:50.759Z,12.93
2019-06-08T21:20:17.708Z,12.88
2019-06-08T21:22:46.818Z,12.86
2019-06-08T21:25:13.302Z,12.59
2019-06-08T21:27:39.379Z,12.75
2019-06-08T21:30:17.065Z,12.60
2019-06-08T21:32:37.118Z,12.63
2019-06-08T21:35:04.778Z,12.72
2019-06-08T21:37:30.834Z,12.82
2019-06-08T21:40:03.423Z,12.87
2019-06-08T21:42:27.634Z,12.81
2019-06-08T21:44:54.930Z,12.71
2019-06-08T21:47:21.600Z,12.71
2019-06-08T21:49:51.004Z,12.78
2019-06-08T21:52:17.936Z,12.84
2019-06-08T21:54:44.064Z,12.80
2019-06-08T21:57:10.352Z,12.77
2019-06-08T21:59:37.863Z,12.74
2019-06-08T22:02:08.031Z,12.80
2019-06-08T22:04:34.139Z,12.88
2019-06-08T22:07:01.516Z,12.87
2019-06-08T22:09:28.606Z,12.83
2019-06-08T22:11:54.811Z,12.83
2019-06-08T22:14:40.179Z,12.79
2019-06-08T22:17:24.508Z,12.76
2019-06-08T22:19:52.054Z,12.76
2019-06-08T22:22:18.694Z,12.81
2019-06-08T22:24:47.348Z,12.91
2019-06-08T22:27:13.585Z,12.83
2019-06-08T22:29:39.826Z,12.41
2019-06-08T22:32:07.667Z,12.24
2019-06-08T22:34:34.132Z,12.03
2019-06-08T22:37:00.561Z,11.81
2019-06-08T22:39:28.113Z,11.62
2019-06-08T22:41:56.068Z,11.58
2019-06-08T22:44:22.730Z,11.61
2019-06-08T22:47:08.276Z,11.65
2019-06-08T22:49:34.530Z,11.71
2019-06-08T22:52:02.602Z,11.73
2019-06-08T22:54:29.036Z,11.73
2019-06-08T22:57:13.608Z,11.74
2019-06-08T22:59:41.085Z,11.71
2019-06-08T23:02:09.027Z,11.66
2019-06-08T23:04:35.273Z,11.63
2019-06-08T23:07:04.356Z,11.52
2019-06-08T23:09:29.300Z,11.47
2019-06-08T23:11:59.119Z,11.40
2019-06-08T23:14:23.849Z,11.36
2019-06-08T23:16:49.975Z,11.35
2019-06-08T23:19:17.393Z,11.39
2019-06-08T23:21:43.616Z,11.47
2019-06-08T23:24:09.710Z,11.60
2019-06-08T23:26:37.276Z,11.76
2019-06-08T23:29:04.378Z,11.77
2019-06-08T23:31:30.668Z,11.68
2019-06-08T23:33:59.657Z,11.54
2019-06-08T23:36:51.709Z,11.55
2019-06-08T23:38:53.848Z,11.52
2019-06-08T23:41:19.944Z,11.47
2019-06-08T23:43:48.119Z,11.45
2019-06-08T23:46:14.349Z,11.42
2019-06-08T23:48:40.457Z,11.43
2019-06-08T23:51:09.201Z,11.39
2019-06-08T23:53:35.016Z,11.44
2019-06-08T23:56:02.391Z,11.44
2019-06-08T23:58:29.206Z,11.30
